Time;durP1;ratioP1;P1;durP2;ratioP2;P2;SDS_P1;SDS_P2;PMS_P1;PMS_P2;Temp;Humidity;BMP_temperature;BMP_pressure;BME280_temperature;BME280_humidity;BME280_pressure;Samples;Min_cycle;Max_cycle;Signal;HPM_P1;HPM_P2
2021/08/27 00:01:02;;;;;;;25.57;4.20;;;13.80;99.90;;;;;;5057469;28;20287;-75
2021/08/27 00:03:28;;;;;;;24.83;4.13;;;13.70;99.90;;;;;;5059838;28;20283;-75
2021/08/27 00:05:55;;;;;;;14.33;4.20;;;13.70;99.90;;;;;;5059430;28;20203;-78
2021/08/27 00:08:22;;;;;;;17.40;3.90;;;13.70;99.90;;;;;;5057801;28;20201;-75
2021/08/27 00:10:51;;;;;;;12.97;3.33;;;13.70;99.90;;;;;;5055746;28;20650;-75
2021/08/27 00:13:17;;;;;;;11.90;4.03;;;13.70;99.90;;;;;;5054181;28;20203;-74
2021/08/27 00:15:44;;;;;;;10.93;3.37;;;13.60;99.90;;;;;;5055575;28;20614;-75
2021/08/27 00:18:12;;;;;;;12.03;3.33;;;13.60;99.90;;;;;;5056079;28;20289;-77
2021/08/27 00:20:39;;;;;;;12.93;3.57;;;13.50;99.90;;;;;;5058002;28;20693;-77
2021/08/27 00:23:06;;;;;;;10.97;3.53;;;13.50;99.90;;;;;;5057313;28;20635;-78
2021/08/27 00:25:33;;;;;;;12.83;3.20;;;13.50;99.90;;;;;;5054603;28;20232;-76
2021/08/27 00:28:05;;;;;;;11.67;3.53;;;13.50;99.90;;;;;;5054163;28;20295;-74
2021/08/27 00:30:32;;;;;;;10.73;2.53;;;13.50;99.90;;;;;;5055881;28;20216;-75
2021/08/27 00:32:59;;;;;;;8.73;3.37;;;13.50;99.90;;;;;;5058304;28;20662;-75
2021/08/27 00:35:26;;;;;;;14.60;2.77;;;13.50;99.90;;;;;;5055276;28;20242;-73
2021/08/27 00:37:52;;;;;;;12.90;2.87;;;13.50;99.90;;;;;;5056687;28;20278;-74
2021/08/27 00:40:19;;;;;;;8.87;2.73;;;13.60;99.90;;;;;;5070928;28;20280;-75
2021/08/27 00:42:46;;;;;;;13.57;3.40;;;13.70;99.90;;;;;;5054953;28;20683;-74
2021/08/27 00:45:14;;;;;;;11.70;3.30;;;13.80;99.90;;;;;;5058487;28;20291;-75
2021/08/27 00:47:41;;;;;;;10.47;2.87;;;13.90;99.90;;;;;;5056523;28;20295;-74
2021/08/27 00:50:10;;;;;;;14.27;2.90;;;13.80;99.90;;;;;;5060212;28;20576;-76
2021/08/27 00:52:37;;;;;;;10.00;3.17;;;13.70;99.90;;;;;;5056876;28;20227;-76
2021/08/27 00:55:05;;;;;;;14.00;3.17;;;13.80;99.90;;;;;;5072895;28;20661;-75
2021/08/27 00:57:32;;;;;;;10.83;2.80;;;13.80;99.90;;;;;;5073583;28;20278;-74
2021/08/27 00:59:59;;;;;;;13.67;3.20;;;13.80;99.90;;;;;;5073001;28;20223;-77
2021/08/27 01:02:28;;;;;;;8.13;3.00;;;13.80;99.90;;;;;;5073195;28;20246;-75
2021/08/27 01:04:57;;;;;;;14.00;3.50;;;13.70;99.90;;;;;;5073243;28;20286;-74
2021/08/27 01:07:29;;;;;;;10.23;2.97;;;13.70;99.90;;;;;;5073050;28;20205;-75
2021/08/27 01:10:03;;;;;;;17.97;3.13;;;13.70;99.90;;;;;;5073386;28;20199;-76
2021/08/27 01:12:38;;;;;;;10.17;2.73;;;13.60;99.90;;;;;;5072839;28;20277;-77
2021/08/27 01:15:10;;;;;;;10.77;2.67;;;13.60;99.90;;;;;;5072955;28;20289;-77
2021/08/27 01:17:43;;;;;;;10.90;2.90;;;13.60;99.90;;;;;;5073178;28;20196;-76
2021/08/27 01:20:52;;;;;;;16.43;2.90;;;13.60;99.90;;;;;;5073153;28;20192;-76
2021/08/27 01:23:34;;;;;;;10.73;2.70;;;13.50;99.90;;;;;;5072855;28;20287;-76
2021/08/27 01:26:03;;;;;;;10.47;2.50;;;13.40;99.90;;;;;;5072775;28;20203;-76
2021/08/27 01:28:32;;;;;;;11.27;2.97;;;13.40;99.90;;;;;;5072931;28;20671;-76
2021/08/27 01:31:16;;;;;;;7.30;2.50;;;13.40;99.90;;;;;;5072948;28;20323;-77
2021/08/27 01:33:56;;;;;;;8.73;3.03;;;13.40;99.90;;;;;;5072800;28;20201;-78
2021/08/27 01:36:26;;;;;;;11.90;3.13;;;13.40;99.90;;;;;;5078195;28;20671;-76
2021/08/27 01:38:55;;;;;;;8.37;3.63;;;13.40;99.90;;;;;;5081034;28;20196;-76
2021/08/27 01:41:24;;;;;;;14.90;2.97;;;13.40;99.90;;;;;;5072715;28;20234;-76
2021/08/27 01:43:52;;;;;;;9.47;2.70;;;13.40;99.90;;;;;;5073027;28;20286;-75
2021/08/27 01:46:19;;;;;;;15.13;2.90;;;13.40;99.90;;;;;;5072382;28;20203;-78
2021/08/27 01:48:47;;;;;;;15.00;2.83;;;13.40;99.90;;;;;;5072942;28;20655;-76
2021/08/27 01:51:16;;;;;;;9.23;2.33;;;13.40;99.90;;;;;;5064021;28;20255;-77
2021/08/27 01:53:45;;;;;;;7.70;2.53;;;13.30;99.90;;;;;;5072452;28;20294;-77
2021/08/27 01:56:12;;;;;;;13.47;2.97;;;13.30;99.90;;;;;;5072367;28;20259;-79
2021/08/27 01:58:39;;;;;;;8.90;2.37;;;13.30;99.90;;;;;;5058395;28;20200;-77
2021/08/27 02:01:08;;;;;;;8.23;2.40;;;13.30;99.90;;;;;;5072705;28;20207;-76
2021/08/27 02:03:36;;;;;;;10.03;2.73;;;13.30;99.90;;;;;;5072412;28;20247;-79
2021/08/27 02:06:03;;;;;;;9.23;2.40;;;13.30;99.90;;;;;;5072833;28;20208;-77
2021/08/27 02:08:31;;;;;;;11.63;2.83;;;13.30;99.90;;;;;;5072287;28;20227;-76
2021/08/27 02:11:01;;;;;;;12.50;2.70;;;13.30;99.90;;;;;;5072508;28;20245;-76
2021/08/27 02:13:30;;;;;;;13.73;2.50;;;13.30;99.90;;;;;;5058473;28;20245;-80
2021/08/27 02:15:57;;;;;;;15.23;2.90;;;13.30;99.90;;;;;;5062005;28;20279;-78
2021/08/27 02:18:24;;;;;;;10.63;2.33;;;13.30;99.90;;;;;;5069304;28;20203;-79
2021/08/27 02:20:53;;;;;;;9.37;2.37;;;13.30;99.90;;;;;;5072373;28;20739;-79
2021/08/27 02:23:23;;;;;;;8.60;2.50;;;13.30;99.90;;;;;;5072317;28;20195;-79
2021/08/27 02:25:52;;;;;;;6.87;2.80;;;13.30;99.90;;;;;;5072318;28;20211;-80
2021/08/27 02:28:21;;;;;;;8.43;2.40;;;13.40;99.90;;;;;;5072134;28;20287;-77
2021/08/27 02:30:49;;;;;;;7.10;2.80;;;13.40;99.90;;;;;;5072460;28;20568;-78
2021/08/27 02:33:17;;;;;;;9.33;2.60;;;13.40;99.90;;;;;;5072223;28;20227;-78
2021/08/27 02:35:46;;;;;;;17.07;2.67;;;13.50;99.90;;;;;;5072297;28;20207;-77
2021/08/27 02:38:17;;;;;;;13.37;2.97;;;13.40;99.90;;;;;;5074321;28;20325;-76
2021/08/27 02:40:44;;;;;;;14.27;2.70;;;13.40;99.90;;;;;;5075753;28;20227;-76
2021/08/27 02:43:11;;;;;;;7.63;2.53;;;13.40;99.90;;;;;;5075793;28;20673;-79
2021/08/27 02:45:39;;;;;;;9.80;2.73;;;13.40;99.90;;;;;;5075831;28;20231;-75
2021/08/27 02:48:06;;;;;;;11.43;2.53;;;13.40;99.90;;;;;;5076155;28;20202;-75
2021/08/27 02:50:39;;;;;;;12.50;2.53;;;13.50;99.90;;;;;;5075765;28;20294;-76
2021/08/27 02:53:10;;;;;;;9.97;2.73;;;13.50;99.90;;;;;;5075703;28;20325;-76
2021/08/27 02:55:44;;;;;;;8.50;3.00;;;13.60;99.90;;;;;;5075668;28;20234;-77
2021/08/27 02:58:13;;;;;;;17.00;2.73;;;13.60;99.90;;;;;;5075884;28;20279;-76
2021/08/27 03:00:50;;;;;;;11.80;2.80;;;13.70;99.90;;;;;;5075520;28;20562;-79
2021/08/27 03:03:20;;;;;;;9.20;2.53;;;13.70;99.90;;;;;;5075732;28;20206;-79
2021/08/27 03:05:47;;;;;;;12.03;2.83;;;13.80;99.90;;;;;;5075621;28;20227;-76
2021/08/27 03:08:21;;;;;;;9.87;2.93;;;13.80;99.90;;;;;;5075448;28;20203;-77
2021/08/27 03:10:53;;;;;;;12.50;3.10;;;13.80;99.90;;;;;;5075396;28;20603;-77
2021/08/27 03:13:29;;;;;;;12.67;2.60;;;13.90;99.90;;;;;;5090331;28;20254;-76
2021/08/27 03:16:00;;;;;;;10.77;3.10;;;13.90;99.90;;;;;;5091006;28;20231;-76
2021/08/27 03:18:34;;;;;;;17.13;3.13;;;13.90;99.90;;;;;;5075848;28;20572;-76
2021/08/27 03:21:06;;;;;;;10.87;3.00;;;13.90;99.90;;;;;;5075841;28;20230;-75
2021/08/27 03:23:35;;;;;;;13.07;3.00;;;14.00;99.90;;;;;;5075183;28;20689;-75
2021/08/27 03:26:05;;;;;;;12.50;2.90;;;13.90;99.90;;;;;;5075706;28;20765;-76
2021/08/27 03:28:39;;;;;;;9.53;3.20;;;13.80;99.90;;;;;;5075449;28;20286;-77
2021/08/27 03:31:08;;;;;;;8.67;3.60;;;13.80;99.90;;;;;;5075496;28;20257;-75
2021/08/27 03:33:35;;;;;;;9.77;2.83;;;13.80;99.90;;;;;;5075046;28;20245;-75
2021/08/27 03:36:03;;;;;;;8.93;2.70;;;13.80;99.90;;;;;;5074973;28;20665;-78
2021/08/27 03:38:30;;;;;;;7.83;3.00;;;13.70;99.90;;;;;;5074708;28;20286;-80
2021/08/27 03:40:58;;;;;;;10.80;3.20;;;13.70;99.90;;;;;;5075149;28;20595;-75
2021/08/27 03:43:26;;;;;;;6.63;2.83;;;13.60;99.90;;;;;;5074545;28;20211;-75
2021/08/27 03:45:53;;;;;;;13.30;3.30;;;13.60;99.90;;;;;;5074930;28;20207;-79
2021/08/27 03:48:23;;;;;;;13.23;3.30;;;13.60;99.90;;;;;;5074797;28;20230;-79
2021/08/27 03:50:51;;;;;;;8.43;2.97;;;13.50;99.90;;;;;;5074852;28;20295;-78
2021/08/27 03:53:18;;;;;;;9.10;3.10;;;13.50;99.90;;;;;;5074477;28;20309;-76
2021/08/27 03:55:49;;;;;;;12.13;3.40;;;13.50;99.90;;;;;;5074293;28;20206;-74
2021/08/27 03:58:18;;;;;;;12.03;3.20;;;13.60;99.90;;;;;;5074777;28;20291;-81
2021/08/27 04:00:45;;;;;;;10.70;2.97;;;13.50;99.90;;;;;;5074478;28;20203;-77
2021/08/27 04:03:13;;;;;;;11.73;3.97;;;13.50;99.90;;;;;;5074368;28;20894;-76
2021/08/27 04:05:57;;;;;;;10.57;3.27;;;13.40;99.90;;;;;;5074338;28;20200;-75
2021/08/27 04:08:25;;;;;;;8.53;3.47;;;13.40;99.90;;;;;;5074487;28;20570;-78
2021/08/27 04:10:52;;;;;;;10.63;3.40;;;13.30;99.90;;;;;;5074813;28;20218;-77
2021/08/27 04:13:18;;;;;;;15.20;3.53;;;13.20;99.90;;;;;;5074385;28;20294;-75
2021/08/27 04:15:45;;;;;;;15.77;3.97;;;13.10;99.90;;;;;;5074144;28;20586;-76
2021/08/27 04:18:12;;;;;;;13.13;3.77;;;13.10;99.90;;;;;;5073938;28;20286;-76
2021/08/27 04:20:39;;;;;;;13.03;4.07;;;13.10;99.90;;;;;;5074086;28;20245;-78
2021/08/27 04:23:07;;;;;;;16.50;3.57;;;13.10;99.90;;;;;;5073919;28;20239;-76
2021/08/27 04:25:34;;;;;;;13.63;3.40;;;13.00;99.90;;;;;;5074273;28;20298;-77
2021/08/27 04:28:01;;;;;;;14.67;3.73;;;13.00;99.90;;;;;;5073795;28;20240;-75
2021/08/27 04:30:28;;;;;;;13.87;3.70;;;13.00;99.90;;;;;;5073830;28;20238;-80
2021/08/27 04:32:55;;;;;;;13.77;3.17;;;12.90;99.90;;;;;;5073960;28;20235;-79
2021/08/27 04:35:22;;;;;;;16.37;4.43;;;12.80;99.90;;;;;;5073755;28;20599;-77
2021/08/27 04:37:49;;;;;;;10.17;3.40;;;12.80;99.90;;;;;;5074041;28;20203;-76
2021/08/27 04:40:18;;;;;;;11.93;3.77;;;12.70;99.90;;;;;;5073648;28;20223;-76
2021/08/27 04:42:44;;;;;;;13.80;3.60;;;12.60;99.90;;;;;;5073812;28;20207;-76
2021/08/27 04:45:11;;;;;;;15.63;3.80;;;12.60;99.90;;;;;;5073803;28;20616;-77
2021/08/27 04:47:39;;;;;;;11.80;3.87;;;12.60;99.90;;;;;;5073888;28;20733;-80
2021/08/27 04:50:08;;;;;;;15.60;3.37;;;12.70;99.90;;;;;;5073585;28;20648;-76
2021/08/27 04:52:34;;;;;;;9.90;3.57;;;12.70;99.90;;;;;;5073596;28;20292;-76
2021/08/27 04:55:01;;;;;;;14.20;3.70;;;12.70;99.90;;;;;;5073205;28;20207;-76
2021/08/27 04:57:30;;;;;;;14.20;3.60;;;12.70;99.90;;;;;;5072320;28;20592;-77
2021/08/27 04:59:57;;;;;;;13.50;3.57;;;12.70;99.90;;;;;;5072546;28;20192;-78
2021/08/27 05:02:24;;;;;;;16.77;3.63;;;12.80;99.90;;;;;;5072522;28;20329;-78
2021/08/27 05:04:51;;;;;;;10.37;3.50;;;12.80;99.90;;;;;;5073062;28;20286;-80
2021/08/27 05:07:18;;;;;;;15.10;3.97;;;12.80;99.90;;;;;;5073397;28;20231;-80
2021/08/27 05:09:44;;;;;;;12.53;4.23;;;12.80;99.90;;;;;;5073453;28;20199;-77
2021/08/27 05:12:11;;;;;;;15.17;3.80;;;12.80;99.90;;;;;;5073064;28;20638;-77
2021/08/27 05:14:40;;;;;;;12.70;3.80;;;12.60;99.90;;;;;;5069548;28;20692;-77
2021/08/27 05:17:07;;;;;;;9.13;3.70;;;12.60;99.90;;;;;;5071768;28;20233;-74
2021/08/27 05:19:34;;;;;;;13.90;4.00;;;12.70;99.90;;;;;;5070920;28;20199;-81
2021/08/27 05:22:01;;;;;;;11.40;4.53;;;12.70;99.90;;;;;;5068878;28;20576;-78
2021/08/27 05:24:27;;;;;;;6.27;3.60;;;12.80;99.90;;;;;;5072074;28;20254;-77
2021/08/27 05:26:54;;;;;;;21.83;4.37;;;12.80;99.90;;;;;;5072099;28;20272;-77
2021/08/27 05:29:21;;;;;;;13.83;3.80;;;12.90;99.90;;;;;;5071695;28;20282;-80
2021/08/27 05:31:50;;;;;;;13.20;3.90;;;13.00;99.90;;;;;;5071809;28;20206;-76
2021/08/27 05:34:19;;;;;;;14.60;4.60;;;13.10;99.90;;;;;;5072433;28;20196;-76
2021/08/27 05:36:48;;;;;;;8.63;3.67;;;13.20;99.90;;;;;;5070370;28;20625;-79
2021/08/27 05:39:16;;;;;;;7.73;3.33;;;13.20;99.90;;;;;;5069298;28;20234;-79
2021/08/27 05:41:43;;;;;;;8.73;3.40;;;13.20;99.90;;;;;;5072153;28;20680;-75
2021/08/27 05:44:10;;;;;;;13.17;3.60;;;13.30;99.90;;;;;;5071871;28;20246;-76
2021/08/27 05:46:38;;;;;;;11.33;3.47;;;13.40;99.90;;;;;;5072060;28;20699;-76
2021/08/27 05:49:07;;;;;;;11.20;3.57;;;13.30;99.90;;;;;;5071272;28;20215;-78
2021/08/27 05:51:35;;;;;;;13.43;3.37;;;13.40;99.90;;;;;;5072386;28;20281;-82
2021/08/27 05:54:01;;;;;;;11.07;3.20;;;13.40;99.90;;;;;;5070927;28;20219;-79
2021/08/27 05:56:30;;;;;;;9.30;2.90;;;13.50;99.90;;;;;;5071560;28;20237;-81
2021/08/27 05:58:57;;;;;;;10.37;2.93;;;13.50;99.90;;;;;;5072124;28;20289;-79
2021/08/27 06:01:25;;;;;;;10.57;3.67;;;13.50;99.90;;;;;;5069209;28;20286;-76
2021/08/27 06:03:54;;;;;;;10.70;2.83;;;13.60;99.90;;;;;;5071949;28;20217;-80
2021/08/27 06:06:22;;;;;;;11.57;3.20;;;13.60;99.90;;;;;;5071657;28;20195;-76
2021/08/27 06:08:49;;;;;;;10.93;2.83;;;13.60;99.90;;;;;;5070706;28;20195;-78
2021/08/27 06:11:16;;;;;;;8.93;3.37;;;13.80;99.90;;;;;;5070655;28;20241;-76
2021/08/27 06:13:43;;;;;;;11.93;3.23;;;13.90;99.90;;;;;;5080108;28;20265;-75
2021/08/27 06:16:10;;;;;;;10.83;2.93;;;14.00;99.90;;;;;;5075116;28;20234;-78
2021/08/27 06:18:37;;;;;;;18.50;2.43;;;14.00;99.90;;;;;;5075293;28;20271;-79
2021/08/27 06:21:03;;;;;;;14.03;2.67;;;14.00;99.90;;;;;;5076300;28;20198;-76
2021/08/27 06:23:32;;;;;;;10.00;2.73;;;13.90;99.90;;;;;;5076133;28;20204;-76
2021/08/27 06:25:59;;;;;;;8.83;2.53;;;14.00;99.90;;;;;;5076271;28;20230;-76
2021/08/27 06:28:26;;;;;;;11.50;2.73;;;14.10;99.90;;;;;;5076680;28;20615;-80
2021/08/27 06:30:53;;;;;;;8.73;2.27;;;14.10;99.90;;;;;;5076229;28;20290;-77
2021/08/27 06:33:20;;;;;;;7.37;2.47;;;14.30;99.90;;;;;;5076456;28;20257;-77
2021/08/27 06:35:47;;;;;;;7.83;2.63;;;14.20;99.90;;;;;;5076341;28;20650;-76
2021/08/27 06:38:24;;;;;;;9.43;2.53;;;14.30;99.90;;;;;;5076164;28;20202;-75
2021/08/27 06:40:56;;;;;;;13.87;2.50;;;14.40;99.90;;;;;;5076585;28;20191;-79
2021/08/27 06:43:26;;;;;;;11.43;2.27;;;14.50;99.90;;;;;;5076550;28;20257;-76
2021/08/27 06:45:54;;;;;;;16.67;2.60;;;14.50;99.90;;;;;;5076122;28;20196;-76
2021/08/27 06:48:21;;;;;;;10.13;2.80;;;14.40;99.90;;;;;;5076123;28;20290;-76
2021/08/27 06:50:48;;;;;;;11.90;2.90;;;14.60;99.90;;;;;;5075964;28;20195;-79
2021/08/27 06:53:15;;;;;;;9.33;2.33;;;14.70;99.90;;;;;;5076332;28;20303;-76
2021/08/27 06:55:42;;;;;;;10.80;2.30;;;14.70;99.90;;;;;;5076269;28;20199;-76
2021/08/27 06:58:10;;;;;;;9.83;2.40;;;14.70;99.90;;;;;;5075804;28;20286;-78
2021/08/27 07:00:38;;;;;;;10.00;2.20;;;14.70;99.90;;;;;;5075906;28;20290;-78
2021/08/27 07:03:06;;;;;;;10.03;2.53;;;14.70;99.90;;;;;;5083145;28;20650;-75
2021/08/27 07:05:34;;;;;;;9.70;2.47;;;14.70;99.90;;;;;;5096025;28;20282;-77
2021/08/27 07:08:01;;;;;;;6.87;2.20;;;14.90;99.90;;;;;;5095693;28;20286;-77
2021/08/27 07:10:29;;;;;;;7.33;2.07;;;15.00;99.90;;;;;;5095834;28;20298;-79
2021/08/27 07:12:56;;;;;;;8.63;2.20;;;15.10;99.90;;;;;;5095767;28;20227;-75
2021/08/27 07:15:25;;;;;;;18.40;2.07;;;15.10;99.90;;;;;;5095381;28;20631;-75
2021/08/27 07:17:52;;;;;;;14.20;2.37;;;15.20;99.90;;;;;;5087699;28;20284;-76
2021/08/27 07:20:20;;;;;;;12.47;2.60;;;15.30;99.90;;;;;;5078013;28;20278;-77
2021/08/27 07:22:48;;;;;;;9.90;2.23;;;15.40;99.90;;;;;;5094786;28;20217;-76
2021/08/27 07:25:15;;;;;;;6.73;1.80;;;15.40;99.90;;;;;;5085137;28;20282;-76
2021/08/27 07:27:42;;;;;;;9.40;1.73;;;15.40;99.90;;;;;;5089278;28;20196;-81
2021/08/27 07:30:11;;;;;;;8.50;1.70;;;15.50;99.90;;;;;;5076016;28;20200;-77
2021/08/27 07:32:39;;;;;;;14.30;1.97;;;15.60;99.90;;;;;;5090882;28;20306;-76
2021/08/27 07:35:07;;;;;;;8.87;1.60;;;15.70;99.90;;;;;;5078785;28;20286;-76
2021/08/27 07:37:34;;;;;;;7.33;1.57;;;15.70;99.90;;;;;;5090271;28;20203;-76
2021/08/27 07:40:01;;;;;;;7.00;1.50;;;15.80;99.90;;;;;;5089136;28;20716;-76
2021/08/27 07:42:28;;;;;;;10.80;1.60;;;15.90;99.90;;;;;;5095131;28;20264;-79
2021/08/27 07:44:55;;;;;;;9.40;1.37;;;16.00;99.90;;;;;;5081107;28;20294;-76
2021/08/27 07:47:22;;;;;;;7.10;1.50;;;16.10;99.90;;;;;;5095227;28;20286;-78
2021/08/27 07:49:50;;;;;;;4.37;1.17;;;16.30;99.90;;;;;;5094867;28;20230;-76
2021/08/27 07:52:17;;;;;;;7.53;1.47;;;16.30;99.90;;;;;;5091365;28;20290;-76
2021/08/27 07:54:44;;;;;;;6.27;1.47;;;16.40;99.90;;;;;;5083082;28;20310;-78
2021/08/27 07:57:11;;;;;;;12.50;1.30;;;16.50;99.90;;;;;;5077381;28;20646;-78
2021/08/27 07:59:38;;;;;;;7.77;1.37;;;16.70;99.90;;;;;;5080016;28;20290;-78
2021/08/27 08:02:05;;;;;;;5.13;1.20;;;16.70;99.90;;;;;;5083561;28;20195;-76
2021/08/27 08:04:32;;;;;;;12.97;1.60;;;16.70;99.90;;;;;;5090427;28;20661;-77
2021/08/27 08:07:00;;;;;;;7.80;1.20;;;16.80;99.90;;;;;;5077363;28;20274;-76
2021/08/27 08:09:27;;;;;;;4.97;0.87;;;16.90;99.90;;;;;;5078151;28;20304;-76
2021/08/27 08:11:54;;;;;;;14.07;1.37;;;16.90;99.90;;;;;;5091849;28;20205;-79
2021/08/27 08:14:21;;;;;;;5.57;1.20;;;16.90;99.90;;;;;;5083584;28;20251;-79
2021/08/27 08:16:48;;;;;;;4.20;1.00;;;17.00;99.90;;;;;;5075042;28;20231;-78
2021/08/27 08:19:17;;;;;;;8.23;1.20;;;17.00;99.90;;;;;;5082277;28;20278;-78
2021/08/27 08:21:44;;;;;;;5.33;1.20;;;17.00;99.90;;;;;;5074432;28;20296;-76
2021/08/27 08:24:13;;;;;;;3.80;1.20;;;17.20;99.90;;;;;;5090921;28;20230;-76
2021/08/27 08:26:39;;;;;;;5.27;1.00;;;17.40;99.90;;;;;;5094725;28;20217;-75
2021/08/27 08:29:06;;;;;;;6.67;1.50;;;17.60;99.90;;;;;;5093225;28;20276;-74
2021/08/27 08:31:34;;;;;;;14.30;1.53;;;17.80;99.90;;;;;;5091000;28;20328;-75
2021/08/27 08:34:01;;;;;;;8.47;1.03;;;18.00;99.90;;;;;;5094066;28;20242;-76
2021/08/27 08:36:28;;;;;;;3.33;1.00;;;18.70;99.90;;;;;;5093055;28;20309;-75
2021/08/27 08:38:59;;;;;;;4.73;1.03;;;19.80;99.90;;;;;;5086068;28;20629;-76
2021/08/27 08:41:27;;;;;;;10.00;1.20;;;20.90;99.90;;;;;;5071242;28;20196;-76
2021/08/27 08:43:54;;;;;;;10.50;1.30;;;21.90;99.90;;;;;;5072891;28;20233;-77
2021/08/27 08:46:23;;;;;;;5.33;1.30;;;22.50;99.90;;;;;;5073816;28;20279;-75
2021/08/27 08:48:52;;;;;;;3.65;0.82;;;23.30;99.90;;;;;;5073176;28;20223;-76
2021/08/27 08:51:23;;;;;;;4.03;1.52;;;23.20;99.90;;;;;;5086836;28;20203;-76
2021/08/27 08:53:50;;;;;;;3.58;1.30;;;23.70;99.90;;;;;;5096028;28;20253;-75
2021/08/27 08:56:18;;;;;;;4.45;1.08;;;24.20;99.90;;;;;;5073677;28;20270;-76
2021/08/27 08:58:47;;;;;;;6.28;1.20;;;24.50;99.90;;;;;;5073440;28;20314;-77
2021/08/27 09:01:17;;;;;;;4.03;1.00;;;24.70;99.90;;;;;;5073572;28;20227;-76
2021/08/27 09:03:45;;;;;;;5.57;1.30;;;23.10;99.90;;;;;;5072954;28;20218;-79
2021/08/27 09:06:12;;;;;;;6.25;1.30;;;24.40;99.90;;;;;;5073298;28;20200;-78
2021/08/27 09:08:43;;;;;;;5.68;1.00;;;23.30;99.90;;;;;;5075134;28;20613;-76
2021/08/27 09:11:19;;;;;;;6.25;1.25;;;23.40;99.90;;;;;;5073517;28;20381;-78
2021/08/27 09:13:49;;;;;;;8.95;1.40;;;23.50;99.90;;;;;;5072692;28;20708;-78
2021/08/27 09:16:16;;;;;;;4.55;1.10;;;24.00;99.90;;;;;;5073287;28;20199;-76
2021/08/27 09:18:46;;;;;;;4.47;1.38;;;23.50;99.90;;;;;;5073085;28;20223;-76
2021/08/27 09:21:27;;;;;;;8.10;1.05;;;24.10;99.90;;;;;;5073433;28;20965;-76
2021/08/27 09:24:22;;;;;;;3.65;0.77;;;24.50;99.90;;;;;;5073255;28;20615;-76
2021/08/27 09:26:52;;;;;;;3.40;1.15;;;24.50;99.90;;;;;;5073171;28;20246;-76
2021/08/27 09:29:43;;;;;;;4.20;1.17;;;25.80;99.90;;;;;;5073407;28;20284;-79
2021/08/27 09:32:23;;;;;;;10.52;1.30;;;24.60;99.90;;;;;;5073240;28;20282;-80
2021/08/27 09:35:05;;;;;;;7.00;1.15;;;23.20;99.90;;;;;;5072639;28;20238;-76
2021/08/27 09:37:40;;;;;;;5.38;1.05;;;21.90;99.90;;;;;;5072419;28;20210;-77
2021/08/27 09:40:09;;;;;;;6.22;1.40;;;21.30;99.90;;;;;;5072515;28;20219;-80
2021/08/27 09:42:38;;;;;;;5.90;1.60;;;21.00;99.90;;;;;;5073031;28;20290;-77
2021/08/27 09:45:07;;;;;;;8.30;2.00;;;20.80;99.90;;;;;;5073403;28;20229;-77
2021/08/27 09:47:34;;;;;;;5.43;1.80;;;20.70;99.90;;;;;;5072715;28;20290;-76
2021/08/27 09:50:23;;;;;;;11.47;1.93;;;20.60;99.90;;;;;;5072896;28;20227;-77
2021/08/27 09:52:55;;;;;;;10.63;2.17;;;20.80;99.90;;;;;;5072896;28;20231;-77
2021/08/27 09:55:22;;;;;;;7.10;2.07;;;21.10;99.90;;;;;;5073303;28;20223;-77
2021/08/27 09:57:50;;;;;;;7.67;2.40;;;21.30;99.90;;;;;;5072864;28;20199;-75
2021/08/27 10:00:20;;;;;;;10.60;1.70;;;22.40;99.90;;;;;;5073135;28;20297;-76
2021/08/27 10:02:47;;;;;;;7.43;1.77;;;23.40;99.90;;;;;;5072880;28;20227;-76
2021/08/27 10:05:15;;;;;;;4.85;1.50;;;23.20;99.90;;;;;;5072683;28;20735;-76
2021/08/27 10:07:42;;;;;;;6.85;1.58;;;22.30;99.90;;;;;;5072444;28;20199;-75
2021/08/27 10:10:11;;;;;;;7.33;1.50;;;21.30;99.90;;;;;;5072571;28;20222;-78
2021/08/27 10:12:40;;;;;;;7.70;2.00;;;21.00;99.90;;;;;;5072917;28;20286;-75
2021/08/27 10:15:09;;;;;;;7.90;1.98;;;21.20;99.90;;;;;;5072598;28;20245;-77
2021/08/27 10:17:40;;;;;;;6.72;1.33;;;22.80;99.90;;;;;;5072612;28;20246;-77
2021/08/27 10:20:10;;;;;;;6.30;1.30;;;23.40;99.90;;;;;;5072603;28;20632;-76
2021/08/27 10:22:37;;;;;;;3.63;1.15;;;22.80;99.90;;;;;;5072557;28;20274;-79
2021/08/27 10:25:07;;;;;;;8.38;1.80;;;22.20;99.90;;;;;;5072294;28;20708;-76
2021/08/27 10:27:36;;;;;;;6.07;1.70;;;21.70;99.90;;;;;;5072970;28;20203;-78
2021/08/27 10:30:05;;;;;;;3.53;1.50;;;21.60;99.90;;;;;;5072304;28;20577;-78
2021/08/27 10:32:51;;;;;;;3.83;1.33;;;21.50;99.90;;;;;;5072096;28;20199;-78
2021/08/27 10:35:52;;;;;;;6.63;1.30;;;21.40;99.90;;;;;;5072168;28;20254;-77
2021/08/27 10:38:42;;;;;;;8.10;1.53;;;21.40;99.90;;;;;;5067139;28;20188;-76
2021/08/27 10:41:11;;;;;;;2.93;1.03;;;21.10;99.90;;;;;;5070764;28;20184;-78
2021/08/27 10:44:06;;;;;;;7.63;1.47;;;20.80;99.90;;;;;;5070654;28;20243;-76
2021/08/27 10:47:05;;;;;;;4.23;1.30;;;20.30;99.90;;;;;;5071663;28;20217;-78
2021/08/27 10:49:56;;;;;;;2.87;1.30;;;20.70;99.90;;;;;;5071840;28;20274;-76
2021/08/27 10:52:24;;;;;;;2.50;1.10;;;20.50;99.90;;;;;;5068234;28;20203;-76
2021/08/27 10:55:07;;;;;;;3.43;1.10;;;20.50;99.90;;;;;;5071550;28;20215;-78
2021/08/27 10:57:48;;;;;;;4.33;1.40;;;20.50;99.90;;;;;;5071772;28;20278;-76
2021/08/27 11:00:29;;;;;;;4.67;1.07;;;20.10;99.90;;;;;;5071441;28;20188;-77
2021/08/27 11:02:56;;;;;;;4.07;1.23;;;19.90;99.90;;;;;;5075101;28;20212;-75
2021/08/27 11:05:39;;;;;;;4.90;1.30;;;19.90;99.90;;;;;;5073070;28;20278;-76
2021/08/27 11:08:08;;;;;;;5.00;1.27;;;19.90;99.90;;;;;;5071063;28;20285;-76
2021/08/27 11:10:42;;;;;;;3.67;1.40;;;20.10;99.90;;;;;;5079596;28;20639;-75
2021/08/27 11:13:14;;;;;;;6.70;1.13;;;20.10;99.90;;;;;;5083919;28;20202;-74
2021/08/27 11:15:42;;;;;;;4.33;1.10;;;20.70;99.90;;;;;;5079541;28;20247;-78
2021/08/27 11:18:19;;;;;;;4.73;1.00;;;20.90;99.90;;;;;;5080789;28;20688;-75
2021/08/27 11:20:48;;;;;;;5.50;1.10;;;20.80;99.90;;;;;;5084337;28;20195;-78
2021/08/27 11:23:16;;;;;;;3.50;1.00;;;21.00;99.90;;;;;;5084088;28;20191;-75
2021/08/27 11:25:44;;;;;;;4.07;1.10;;;21.00;99.90;;;;;;5085850;28;20257;-75
2021/08/27 11:28:17;;;;;;;5.27;1.57;;;20.80;99.90;;;;;;5078102;28;20258;-78
2021/08/27 11:30:45;;;;;;;4.33;1.30;;;20.10;99.90;;;;;;5087271;28;20290;-76
2021/08/27 11:34:01;;;;;;;3.23;1.40;;;19.80;99.90;;;;;;5091071;28;20198;-75
2021/08/27 11:36:35;;;;;;;6.20;1.37;;;19.50;99.90;;;;;;5077821;28;20218;-74
2021/08/27 11:39:03;;;;;;;3.87;1.23;;;19.30;99.90;;;;;;5074652;28;20270;-74
2021/08/27 11:41:29;;;;;;;5.83;1.00;;;19.20;99.90;;;;;;5075498;28;20196;-76
2021/08/27 11:44:06;;;;;;;3.93;1.30;;;19.20;99.90;;;;;;5077593;28;20208;-77
2021/08/27 11:46:35;;;;;;;4.30;1.60;;;19.30;99.90;;;;;;5083254;28;20199;-76
2021/08/27 11:49:10;;;;;;;3.00;1.20;;;19.40;99.90;;;;;;5089339;28;20195;-78
2021/08/27 11:51:46;;;;;;;3.50;1.40;;;19.50;99.90;;;;;;5076098;28;20715;-77
2021/08/27 11:54:17;;;;;;;4.20;1.20;;;19.70;99.90;;;;;;5082788;28;20276;-80
2021/08/27 11:56:50;;;;;;;7.07;1.43;;;19.80;99.90;;;;;;5081960;28;20223;-78
2021/08/27 11:59:25;;;;;;;7.47;1.53;;;19.90;99.90;;;;;;5084426;28;20283;-77
2021/08/27 12:01:52;;;;;;;2.87;1.40;;;19.70;99.90;;;;;;5075936;28;20209;-83
2021/08/27 12:04:30;;;;;;;3.63;1.73;;;19.90;99.90;;;;;;5076831;28;20245;-81
2021/08/27 12:07:13;;;;;;;6.47;1.40;;;20.30;99.90;;;;;;5079011;28;20207;-76
2021/08/27 12:09:41;;;;;;;4.87;1.50;;;20.70;99.90;;;;;;5073496;28;21610;-77
2021/08/27 12:12:28;;;;;;;6.53;1.60;;;20.90;99.90;;;;;;5075077;28;20725;-80
2021/08/27 12:14:55;;;;;;;5.35;1.85;;;21.50;99.90;;;;;;5075084;28;20262;-80
2021/08/27 12:17:25;;;;;;;7.15;2.28;;;22.20;99.90;;;;;;5073362;28;20210;-77
2021/08/27 12:19:53;;;;;;;6.10;1.90;;;22.40;99.90;;;;;;5087105;28;20218;-75
2021/08/27 12:22:23;;;;;;;5.10;2.05;;;22.90;99.90;;;;;;5077360;28;20259;-81
2021/08/27 12:24:52;;;;;;;7.88;2.17;;;23.60;99.90;;;;;;5088559;28;20206;-77
2021/08/27 12:27:19;;;;;;;8.63;2.20;;;24.30;99.90;;;;;;5081799;28;20621;-79
2021/08/27 12:29:47;;;;;;;7.13;2.42;;;23.50;99.90;;;;;;5081394;28;20286;-77
2021/08/27 12:32:17;;;;;;;8.98;2.20;;;22.50;99.90;;;;;;5091019;28;20233;-79
2021/08/27 12:34:46;;;;;;;8.63;2.50;;;21.70;99.90;;;;;;5073627;28;20219;-78
2021/08/27 12:37:13;;;;;;;10.27;2.50;;;21.20;99.90;;;;;;5085427;28;20234;-78
2021/08/27 12:39:42;;;;;;;8.27;2.57;;;20.80;99.90;;;;;;5086639;28;20283;-77
2021/08/27 12:42:13;;;;;;;10.43;2.43;;;20.50;99.90;;;;;;5085095;28;20191;-79
2021/08/27 12:45:02;;;;;;;7.37;2.30;;;20.40;99.90;;;;;;5085082;28;20261;-79
2021/08/27 12:47:35;;;;;;;9.60;2.63;;;20.30;99.90;;;;;;5059378;28;20534;-78
2021/08/27 12:50:06;;;;;;;8.57;2.70;;;20.20;99.90;;;;;;5085640;28;20196;-76
2021/08/27 12:52:33;;;;;;;6.93;2.50;;;20.40;99.90;;;;;;5089016;28;20211;-79
2021/08/27 12:55:01;;;;;;;11.97;3.10;;;20.60;99.90;;;;;;5096642;28;20710;-76
2021/08/27 12:57:28;;;;;;;9.83;2.43;;;20.70;99.90;;;;;;5095159;28;20286;-76